TimeMDT,TemperatureF,Dew PointF,Humidity,Sea Level PressureIn,VisibilityMPH,Wind Direction,Wind SpeedMPH,Gust SpeedMPH,PrecipitationIn,Events,Conditions,WindDirDegrees,DateUTC
12:53 AM,30.9,28.0,89,30.18,10.0,NNW,4.6,-,N/A,,Clear,340,2013-03-31 06:53:00
1:53 AM,30.9,28.0,89,30.17,10.0,SW,4.6,-,N/A,,Clear,230,2013-03-31 07:53:00
2:53 AM,28.0,26.1,92,30.14,10.0,Calm,Calm,-,N/A,,Clear,0,2013-03-31 08:53:00
3:53 AM,25.0,24.1,96,30.12,10.0,Calm,Calm,-,N/A,,Clear,0,2013-03-31 09:53:00
4:53 AM,23.0,21.0,92,30.11,10.0,Calm,Calm,-,N/A,,Clear,0,2013-03-31 10:53:00
5:53 AM,21.0,19.9,96,30.09,10.0,ENE,4.6,-,N/A,,Clear,70,2013-03-31 11:53:00
6:53 AM,21.9,19.9,92,30.08,10.0,West,4.6,-,N/A,,Clear,270,2013-03-31 12:53:00
7:53 AM,27.0,24.1,89,30.08,10.0,ENE,3.5,-,N/A,,Clear,70,2013-03-31 13:53:00
8:53 AM,34.0,27.0,75,30.06,10.0,SSE,3.5,-,N/A,,Clear,150,2013-03-31 14:53:00
9:53 AM,42.1,27.0,55,30.02,10.0,Calm,Calm,-,N/A,,Clear,0,2013-03-31 15:53:00
10:53 AM,52.0,26.1,37,29.99,10.0,WNW,3.5,-,N/A,,Clear,300,2013-03-31 16:53:00
11:53 AM,61.0,21.9,22,29.96,10.0,West,16.1,23.0,N/A,,Clear,280,2013-03-31 17:53:00
12:53 PM,64.0,17.1,16,29.94,10.0,NW,19.6,25.3,N/A,,Clear,310,2013-03-31 18:53:00
1:53 PM,63.0,19.0,18,29.93,10.0,NW,19.6,29.9,N/A,,Clear,320,2013-03-31 19:53:00
2:53 PM,64.9,19.0,17,29.91,10.0,NNW,16.1,27.6,N/A,,Clear,340,2013-03-31 20:53:00
3:53 PM,64.0,21.0,19,29.92,10.0,NW,20.7,35.7,N/A,,Clear,320,2013-03-31 21:53:00
4:53 PM,64.0,21.0,19,29.92,10.0,NNW,17.3,31.1,N/A,,Clear,340,2013-03-31 22:53:00
5:53 PM,61.0,21.0,21,29.95,10.0,North,16.1,29.9,N/A,,Mostly Cloudy,350,2013-03-31 23:53:00
6:53 PM,57.0,23.0,27,29.98,10.0,North,33.4,39.1,N/A,,Partly Cloudy,10,2013-04-01 00:53:00
7:53 PM,46.0,27.0,47,30.05,10.0,NE,16.1,-,N/A,,Clear,50,2013-04-01 01:53:00
9:53 PM,41.0,24.1,51,30.12,10.0,ENE,9.2,-,N/A,,Clear,60,2013-04-01 03:53:00
10:53 PM,37.9,21.0,51,30.14,10.0,East,9.2,-,N/A,,Clear,80,2013-04-01 04:53:00
11:53 PM,34.0,17.1,50,30.14,10.0,East,9.2,-,N/A,,Clear,80,2013-04-01 05:53:00